Time;durP1;ratioP1;P1;durP2;ratioP2;P2;SDS_P1;SDS_P2;PMS_P1;PMS_P2;Temp;Humidity;BMP_temperature;BMP_pressure;BME280_temperature;BME280_humidity;BME280_pressure;Samples;Min_cycle;Max_cycle;Signal;HPM_P1;HPM_P2
2021/03/09 00:01:37;;;;;;;27.50;18.63;;;;;;;4.60;71.64;102095.03;5093620;28;20119;-40
2021/03/09 00:04:03;;;;;;;27.07;18.50;;;;;;;4.58;71.32;102089.00;5092992;28;20094;-40
2021/03/09 00:06:28;;;;;;;29.10;19.27;;;;;;;4.58;71.73;102091.66;5093533;28;20495;-40
2021/03/09 00:08:54;;;;;;;30.57;19.80;;;;;;;4.51;72.49;102098.69;5093517;28;20039;-40
2021/03/09 00:11:19;;;;;;;28.65;18.98;;;;;;;4.49;72.52;102089.97;5094137;28;20119;-40
2021/03/09 00:13:45;;;;;;;29.77;19.10;;;;;;;4.44;73.29;102097.63;5093558;28;20027;-40
2021/03/09 00:16:10;;;;;;;28.53;19.20;;;;;;;4.42;73.41;102086.25;5093812;28;20020;-40
2021/03/09 00:18:35;;;;;;;31.60;19.40;;;;;;;4.38;74.02;102088.41;5093675;28;20085;-40
2021/03/09 00:21:01;;;;;;;29.73;19.63;;;;;;;4.38;74.46;102083.03;5092274;28;20072;-40
2021/03/09 00:23:26;;;;;;;29.90;20.60;;;;;;;4.35;74.99;102086.06;5093326;28;20032;-40
2021/03/09 00:25:51;;;;;;;32.57;19.63;;;;;;;4.34;74.92;102084.34;5094213;28;20028;-40
2021/03/09 00:28:20;;;;;;;27.93;18.63;;;;;;;4.34;75.28;102087.91;5093536;28;20185;-40
2021/03/09 00:30:46;;;;;;;33.33;21.70;;;;;;;4.34;75.24;102082.56;5092042;28;20388;-40
2021/03/09 00:33:11;;;;;;;29.03;19.27;;;;;;;4.28;76.16;102080.50;5092970;28;20020;-40
2021/03/09 00:35:36;;;;;;;29.60;19.40;;;;;;;4.27;75.79;102076.13;5093267;28;20103;-40
2021/03/09 00:38:02;;;;;;;31.73;21.07;;;;;;;4.26;75.74;102074.47;5092644;28;20152;-40
2021/03/09 00:40:27;;;;;;;29.20;19.77;;;;;;;4.27;75.64;102076.13;5093809;28;20035;-40
2021/03/09 00:42:52;;;;;;;30.10;19.50;;;;;;;4.17;76.62;102080.78;5093211;28;20468;-40
2021/03/09 00:45:18;;;;;;;31.43;20.33;;;;;;;4.19;76.39;102077.94;5093495;28;20043;-40
2021/03/09 00:47:43;;;;;;;29.90;20.07;;;;;;;4.12;76.97;102073.22;5093440;28;20036;-40
2021/03/09 00:50:09;;;;;;;36.60;21.77;;;;;;;4.08;77.51;102071.84;5093609;28;20085;-40
2021/03/09 00:52:34;;;;;;;34.95;21.48;;;;;;;4.11;77.68;102070.69;5093614;28;20028;-40
2021/03/09 00:55:00;;;;;;;35.27;21.43;;;;;;;4.13;77.52;102063.34;5093123;28;20111;-40
2021/03/09 00:57:25;;;;;;;34.03;22.30;;;;;;;4.07;77.77;102061.31;5093028;28;20050;-40
2021/03/09 00:59:50;;;;;;;31.80;21.80;;;;;;;4.04;77.80;102053.56;5094382;28;20024;-40
2021/03/09 01:02:16;;;;;;;33.77;21.83;;;;;;;4.07;77.87;102042.56;5096699;28;20032;-40
2021/03/09 01:04:41;;;;;;;34.43;21.07;;;;;;;4.06;77.71;102051.59;5096826;28;20047;-40
2021/03/09 01:07:06;;;;;;;36.83;22.10;;;;;;;4.03;78.45;102043.88;5096853;28;20028;-40
2021/03/09 01:09:31;;;;;;;33.93;22.63;;;;;;;4.03;77.85;102051.91;5096242;28;20137;-40
2021/03/09 01:11:57;;;;;;;36.60;23.13;;;;;;;3.97;78.78;102040.00;5096781;28;20032;-40
2021/03/09 01:14:22;;;;;;;35.63;23.37;;;;;;;3.94;78.97;102034.13;5096238;28;20071;-40
2021/03/09 01:16:47;;;;;;;34.07;21.93;;;;;;;3.94;79.71;102028.75;5096354;28;20028;-40
2021/03/09 01:19:13;;;;;;;41.63;22.30;;;;;;;3.99;78.85;102029.13;5096389;28;20028;-40
2021/03/09 01:21:38;;;;;;;37.53;24.63;;;;;;;3.93;79.88;102024.41;5096051;28;20020;-40
2021/03/09 01:24:04;;;;;;;33.70;22.30;;;;;;;3.91;79.13;102013.88;5095077;28;20040;-40
2021/03/09 01:26:29;;;;;;;35.72;23.60;;;;;;;3.92;79.69;102012.03;5096155;28;20024;-40
2021/03/09 01:28:55;;;;;;;33.20;22.93;;;;;;;3.97;78.99;102015.06;5096240;28;20035;-40
2021/03/09 01:31:20;;;;;;;33.40;23.70;;;;;;;3.87;79.63;102008.00;5096338;28;20168;-40
2021/03/09 01:33:45;;;;;;;36.30;23.90;;;;;;;3.93;79.50;102013.72;5096377;28;20347;-40
2021/03/09 01:36:11;;;;;;;38.90;24.33;;;;;;;3.89;80.13;102005.16;5096382;28;20376;-40
2021/03/09 01:38:36;;;;;;;37.23;24.67;;;;;;;3.84;80.50;102002.94;5096019;28;20028;-40
2021/03/09 01:41:02;;;;;;;38.60;25.80;;;;;;;3.83;80.04;101998.59;5095975;28;20027;-40
2021/03/09 01:43:27;;;;;;;37.75;23.40;;;;;;;3.85;80.22;101993.91;5095840;28;20097;-40
2021/03/09 01:45:52;;;;;;;36.63;24.23;;;;;;;3.85;80.70;101996.59;5096541;28;20483;-40
2021/03/09 01:48:21;;;;;;;37.97;24.77;;;;;;;3.85;80.93;101999.28;5095868;28;20032;-40
2021/03/09 01:50:47;;;;;;;39.83;24.63;;;;;;;3.86;80.88;101994.78;5096289;28;20031;-40
2021/03/09 01:53:13;;;;;;;40.08;25.95;;;;;;;3.85;81.11;101991.25;5095740;28;20024;-40
2021/03/09 01:55:38;;;;;;;43.85;26.48;;;;;;;3.92;80.64;101995.97;5096272;28;20039;-40
2021/03/09 01:58:12;;;;;;;47.30;27.60;;;;;;;3.90;81.06;101981.91;5095634;28;20073;-40
2021/03/09 02:00:38;;;;;;;40.03;25.83;;;;;;;3.90;80.73;101982.75;5095341;28;20106;-40
2021/03/09 02:03:04;;;;;;;41.30;27.27;;;;;;;3.88;81.20;101979.41;5095734;28;20032;-40
2021/03/09 02:05:29;;;;;;;42.42;26.23;;;;;;;3.82;81.16;101972.84;5095857;28;20147;-40
2021/03/09 02:07:55;;;;;;;41.17;26.00;;;;;;;3.82;81.03;101970.19;5095685;28;20069;-40
2021/03/09 02:10:21;;;;;;;42.47;27.87;;;;;;;3.80;81.55;101988.22;5094856;28;20460;-40
2021/03/09 02:13:05;;;;;;;40.05;26.70;;;;;;;3.82;81.59;101970.19;5095306;28;20103;-40
2021/03/09 02:15:57;;;;;;;43.33;27.45;;;;;;;3.86;81.41;101960.84;5095513;28;20028;-40
2021/03/09 02:18:35;;;;;;;43.40;27.20;;;;;;;3.84;82.23;101962.81;5095485;28;20020;-40
2021/03/09 02:21:45;;;;;;;43.97;27.42;;;;;;;3.83;82.25;101955.78;5095729;28;20024;-40
2021/03/09 02:24:35;;;;;;;40.38;26.92;;;;;;;3.78;82.56;101944.72;5093981;28;20027;-40
2021/03/09 02:27:07;;;;;;;42.97;28.33;;;;;;;3.77;82.82;101944.91;5095392;28;20103;-40
2021/03/09 02:29:42;;;;;;;48.35;27.17;;;;;;;3.76;82.72;101938.72;5094853;28;20035;-40
2021/03/09 02:32:12;;;;;;;46.45;28.30;;;;;;;3.71;83.06;101930.31;5095467;28;20071;-40
2021/03/09 02:34:45;;;;;;;43.90;27.90;;;;;;;3.69;83.35;101934.97;5095690;28;20376;-40
2021/03/09 02:37:14;;;;;;;49.00;30.00;;;;;;;3.66;83.41;101929.09;5095059;28;20115;-40
2021/03/09 02:39:44;;;;;;;39.63;26.75;;;;;;;3.63;83.12;101922.25;5095104;28;20028;-40
2021/03/09 02:42:13;;;;;;;44.20;27.50;;;;;;;3.62;82.83;101917.91;5094356;28;20114;-40
2021/03/09 02:44:40;;;;;;;47.25;28.33;;;;;;;3.66;82.88;101915.72;5094739;28;20031;-40
2021/03/09 02:47:07;;;;;;;42.30;27.63;;;;;;;3.61;83.39;101910.84;5094677;28;20592;-40
2021/03/09 02:49:34;;;;;;;43.33;26.10;;;;;;;3.64;83.77;101910.53;5094537;28;20361;-40
2021/03/09 02:52:01;;;;;;;40.20;26.67;;;;;;;3.66;82.90;101907.69;5094291;28;20028;-40
2021/03/09 02:54:27;;;;;;;38.20;26.15;;;;;;;3.62;83.09;101901.84;5094613;28;20038;-40
2021/03/09 02:56:53;;;;;;;42.20;26.58;;;;;;;3.61;83.00;101897.47;5094484;28;20497;-40
2021/03/09 02:59:20;;;;;;;41.63;25.20;;;;;;;3.57;83.22;101890.81;5094243;28;20067;-41
2021/03/09 03:01:48;;;;;;;43.85;27.40;;;;;;;3.54;83.22;101891.09;5094120;28;20036;-41
2021/03/09 03:04:17;;;;;;;42.90;26.90;;;;;;;3.57;83.14;101888.13;5095138;28;20055;-40
2021/03/09 03:06:45;;;;;;;42.35;26.75;;;;;;;3.55;83.61;101887.44;5095107;28;20028;-41
2021/03/09 03:09:13;;;;;;;41.33;26.20;;;;;;;3.60;83.65;101893.13;5094329;28;20035;-40
2021/03/09 03:11:41;;;;;;;43.38;26.92;;;;;;;3.55;83.87;101892.78;5094386;28;20456;-40
2021/03/09 03:14:07;;;;;;;42.22;26.13;;;;;;;3.58;84.11;101889.78;5094747;28;20036;-40
2021/03/09 03:16:35;;;;;;;;;;;;;;;3.63;83.54;101874.09;5094549;28;20028;-40
2021/03/09 03:19:02;;;;;;;44.03;26.15;;;;;;;3.63;83.80;101879.44;5094391;28;19908;-41
2021/03/09 03:21:29;;;;;;;44.75;28.60;;;;;;;3.57;84.31;101878.25;5094062;28;20062;-40
2021/03/09 03:23:59;;;;;;;44.88;28.15;;;;;;;3.56;84.37;101873.91;5093228;28;20114;-41
2021/03/09 03:26:25;;;;;;;43.80;29.15;;;;;;;3.55;83.95;101871.38;5094831;28;20120;-40
2021/03/09 03:28:52;;;;;;;46.10;28.65;;;;;;;3.57;84.66;101877.44;5094261;28;20081;-41
2021/03/09 03:31:18;;;;;;;46.42;29.88;;;;;;;3.56;84.37;101875.72;5093829;28;20032;-40
2021/03/09 03:33:43;;;;;;;46.38;30.23;;;;;;;3.55;84.89;101863.34;5093915;28;20361;-40
2021/03/09 03:36:09;;;;;;;48.93;30.70;;;;;;;3.53;84.85;101870.72;5093910;28;20024;-40
2021/03/09 03:38:38;;;;;;;47.67;29.95;;;;;;;3.49;85.25;101870.19;5093730;28;20035;-41
2021/03/09 03:41:05;;;;;;;42.22;26.63;;;;;;;3.52;84.81;101867.22;5093978;28;20024;-41
2021/03/09 03:43:31;;;;;;;47.42;31.15;;;;;;;3.50;85.26;101868.34;5093889;28;20070;-40
2021/03/09 03:45:57;;;;;;;49.28;31.00;;;;;;;3.50;85.34;101869.19;5094178;28;20028;-40
2021/03/09 03:48:22;;;;;;;49.13;30.58;;;;;;;3.51;85.26;101864.66;5093113;28;20028;-40
2021/03/09 03:50:49;;;;;;;50.03;31.02;;;;;;;3.50;85.22;101861.16;5093602;28;20028;-40
2021/03/09 03:53:30;;;;;;;48.03;30.42;;;;;;;3.49;85.74;101870.19;5093552;28;20033;-41
2021/03/09 03:56:10;;;;;;;47.38;30.30;;;;;;;3.49;86.10;101869.34;5093577;28;20110;-40
2021/03/09 03:58:47;;;;;;;46.35;28.77;;;;;;;3.47;85.71;101866.00;5094008;28;20367;-41
2021/03/09 04:01:14;;;;;;;43.88;28.70;;;;;;;3.47;86.20;101872.19;5093187;28;20548;-41
2021/03/09 04:03:40;;;;;;;46.80;30.00;;;;;;;3.49;86.09;101866.69;5093206;28;20059;-41
2021/03/09 04:06:07;;;;;;;48.72;30.13;;;;;;;3.53;85.53;101860.00;5093811;28;20055;-40
2021/03/09 04:08:36;;;;;;;44.05;29.80;;;;;;;3.53;85.88;101860.00;5093334;28;20032;-40
2021/03/09 04:11:02;;;;;;;46.17;29.33;;;;;;;3.56;85.87;101859.69;5093611;28;20024;-40
2021/03/09 04:13:30;;;;;;;47.97;29.80;;;;;;;3.53;86.04;101849.31;5093283;28;20024;-41
2021/03/09 04:15:57;;;;;;;48.78;29.98;;;;;;;3.57;85.87;101848.84;5093992;28;20089;-40
2021/03/09 04:18:25;;;;;;;47.33;29.83;;;;;;;3.54;85.95;101848.31;5093021;28;20473;-40
2021/03/09 04:20:52;;;;;;;49.28;30.95;;;;;;;3.47;86.03;101836.59;5093299;28;20488;-40
2021/03/09 04:23:18;;;;;;;47.42;30.40;;;;;;;3.50;86.46;101844.28;5093775;28;20032;-41
2021/03/09 04:25:46;;;;;;;51.15;32.13;;;;;;;3.46;86.87;101834.91;5092931;28;20044;-40
2021/03/09 04:28:11;;;;;;;49.50;31.67;;;;;;;3.48;86.35;101825.72;5093303;28;20028;-40
2021/03/09 04:30:38;;;;;;;50.85;30.85;;;;;;;3.50;86.67;101829.06;5093496;28;20105;-40
2021/03/09 04:33:05;;;;;;;46.35;29.73;;;;;;;3.51;86.34;101833.41;5093185;28;20060;-40
2021/03/09 04:35:31;;;;;;;49.00;30.65;;;;;;;3.52;86.37;101826.25;5096093;28;20097;-40
2021/03/09 04:37:57;;;;;;;44.92;30.23;;;;;;;3.53;86.47;101823.41;5097128;28;20055;-40
2021/03/09 04:40:23;;;;;;;45.65;29.65;;;;;;;3.53;86.35;101822.56;5097666;28;20055;-40
2021/03/09 04:42:48;;;;;;;48.23;30.93;;;;;;;3.53;86.36;101825.25;5096880;28;20024;-40
2021/03/09 04:45:14;;;;;;;44.47;29.03;;;;;;;3.52;86.71;101818.22;5096709;28;20335;-40
2021/03/09 04:47:40;;;;;;;45.17;29.23;;;;;;;3.51;86.48;101820.03;5096998;28;20081;-40
2021/03/09 04:50:08;;;;;;;49.70;31.17;;;;;;;3.51;87.37;101820.03;5097468;28;20436;-40
2021/03/09 04:52:34;;;;;;;47.20;29.52;;;;;;;3.53;87.06;101814.56;5096757;28;20077;-40
2021/03/09 04:55:00;;;;;;;46.83;30.30;;;;;;;3.55;87.22;101817.88;5097414;28;20024;-40
2021/03/09 04:57:44;;;;;;;45.53;30.47;;;;;;;3.55;87.37;101815.22;5096483;28;20028;-40
2021/03/09 05:00:17;;;;;;;45.65;29.08;;;;;;;3.55;87.02;101815.22;5097050;28;20350;-40
2021/03/09 05:02:46;;;;;;;47.00;30.45;;;;;;;3.51;87.26;101805.84;5097274;28;20431;-40
2021/03/09 05:05:12;;;;;;;49.05;31.08;;;;;;;3.51;86.96;101805.84;5097016;28;20051;-40
2021/03/09 05:07:38;;;;;;;47.67;30.13;;;;;;;3.54;87.35;101810.88;5096548;28;20040;-40
2021/03/09 05:10:04;;;;;;;;;;;;;;;3.59;86.09;101805.88;5097442;28;20130;-40
2021/03/09 05:12:30;;;;;;;44.15;27.80;;;;;;;3.54;86.93;101800.19;5096176;28;19919;-40
2021/03/09 05:14:55;;;;;;;47.63;29.80;;;;;;;3.57;87.25;101807.88;5097079;28;20376;-40
2021/03/09 05:17:21;;;;;;;48.60;30.17;;;;;;;3.57;86.92;101807.88;5096412;28;20369;-40
2021/03/09 05:19:46;;;;;;;44.53;29.63;;;;;;;3.59;87.14;101808.56;5096485;28;20383;-40
2021/03/09 05:22:11;;;;;;;46.67;30.40;;;;;;;3.60;87.21;101810.22;5096359;28;20501;-40
2021/03/09 05:24:37;;;;;;;46.50;30.83;;;;;;;3.56;87.59;101815.06;5096916;28;20024;-40
2021/03/09 05:27:04;;;;;;;48.17;30.63;;;;;;;3.54;87.33;101808.19;5096175;28;20025;-40
2021/03/09 05:29:30;;;;;;;47.47;30.40;;;;;;;3.54;87.64;101805.53;5096693;28;20115;-40
2021/03/09 05:31:55;;;;;;;44.17;30.20;;;;;;;3.54;87.71;101797.50;5094834;28;20165;-40
2021/03/09 05:34:20;;;;;;;45.03;30.10;;;;;;;3.56;88.14;101808.84;5096409;28;20421;-40
2021/03/09 05:36:45;;;;;;;50.47;31.90;;;;;;;3.57;87.48;101799.88;5096552;28;20329;-40
2021/03/09 05:39:11;;;;;;;45.87;30.57;;;;;;;3.57;87.74;101803.38;5096068;28;20031;-40
2021/03/09 05:41:37;;;;;;;48.50;31.87;;;;;;;3.55;87.96;101796.50;5095859;28;20495;-40
2021/03/09 05:44:02;;;;;;;47.75;31.80;;;;;;;3.53;88.33;101799.34;5095995;28;20107;-40
2021/03/09 05:46:29;;;;;;;51.97;31.77;;;;;;;3.51;89.02;101795.13;5095858;28;20508;-40
2021/03/09 05:48:54;;;;;;;51.42;34.22;;;;;;;3.54;88.36;101800.19;5096154;28;20099;-40
2021/03/09 05:51:20;;;;;;;50.20;32.93;;;;;;;3.56;88.71;101800.84;5096524;28;20119;-40
2021/03/09 05:53:45;;;;;;;46.38;30.80;;;;;;;3.61;88.56;101799.38;5095420;28;20039;-40
2021/03/09 05:56:11;;;;;;;48.73;31.40;;;;;;;3.61;88.30;101798.50;5095412;28;20028;-41
2021/03/09 05:58:36;;;;;;;51.63;34.43;;;;;;;3.57;88.68;101784.66;5095272;28;20076;-40
2021/03/09 06:01:02;;;;;;;48.93;32.83;;;;;;;3.61;88.38;101790.50;5095334;28;20034;-40
2021/03/09 06:03:27;;;;;;;50.90;32.50;;;;;;;3.63;88.29;101791.19;5095431;28;20020;-40
2021/03/09 06:05:53;;;;;;;53.13;34.43;;;;;;;3.58;88.71;101789.00;5095959;28;20043;-40
2021/03/09 06:08:19;;;;;;;53.95;34.92;;;;;;;3.60;88.86;101792.34;5095180;28;20055;-40
2021/03/09 06:10:45;;;;;;;49.17;32.83;;;;;;;3.64;88.26;101790.19;5095222;28;20439;-40
2021/03/09 06:13:40;;;;;;;;;;;;;;;3.68;88.13;101788.84;5095239;28;20743;-40
2021/03/09 06:16:05;;;;;;;51.67;33.90;;;;;;;3.63;88.61;101787.69;5032678;28;20014;-41
2021/03/09 06:18:31;;;;;;;54.87;34.80;;;;;;;3.63;89.04;101788.50;5033347;28;20064;-40
2021/03/09 06:21:15;;;;;;;55.20;35.10;;;;;;;3.64;89.33;101781.31;5032838;28;20101;-40
2021/03/09 06:23:43;;;;;;;57.40;36.30;;;;;;;3.63;89.99;101783.16;5032677;28;20036;-40
2021/03/09 06:26:39;;;;;;;59.40;36.35;;;;;;;3.65;89.48;101781.16;5033063;28;20038;-41
2021/03/09 06:29:17;;;;;;;57.42;36.33;;;;;;;3.68;89.41;101783.50;5032623;28;20025;-40
2021/03/09 06:31:48;;;;;;;60.60;36.67;;;;;;;3.69;89.92;101776.31;5032940;28;20033;-40
2021/03/09 06:34:34;;;;;;;55.28;36.20;;;;;;;3.69;89.87;101779.00;5032580;28;20044;-40
2021/03/09 06:37:05;;;;;;;54.13;34.92;;;;;;;3.70;89.95;101775.31;5032602;28;20036;-40
2021/03/09 06:39:53;;;;;;;55.78;36.33;;;;;;;3.74;89.63;101779.34;5032996;28;20064;-45
2021/03/09 06:42:39;;;;;;;55.15;35.80;;;;;;;3.74;89.83;101780.16;5032743;28;20053;-41
2021/03/09 06:45:10;;;;;;;57.67;36.22;;;;;;;3.76;90.12;101780.88;5031768;28;20425;-42
2021/03/09 06:47:40;;;;;;;57.72;36.08;;;;;;;3.75;90.05;101783.69;5032374;28;20453;-41
2021/03/09 06:50:08;;;;;;;58.28;36.80;;;;;;;3.73;89.97;101783.03;5032531;28;20481;-41
2021/03/09 06:52:34;;;;;;;56.00;35.40;;;;;;;3.78;89.94;101786.88;5065247;28;20188;-41
2021/03/09 06:55:00;;;;;;;57.92;37.35;;;;;;;3.80;90.16;101784.84;5095191;28;20039;-41
2021/03/09 06:57:26;;;;;;;61.08;37.85;;;;;;;3.81;89.88;101791.91;5093264;28;20085;-41
2021/03/09 06:59:53;;;;;;;58.00;37.35;;;;;;;3.79;89.75;101785.88;5094701;28;20028;-41
2021/03/09 07:02:24;;;;;;;56.15;37.53;;;;;;;3.83;90.04;101799.75;5095106;28;20063;-41
2021/03/09 07:04:52;;;;;;;52.90;34.47;;;;;;;3.84;89.99;101796.91;5094985;28;20101;-41
2021/03/09 07:07:41;;;;;;;54.13;35.45;;;;;;;3.85;90.36;101795.91;5094309;28;20032;-41
2021/03/09 07:10:08;;;;;;;58.33;37.50;;;;;;;3.82;90.51;101801.59;5094625;28;20059;-41
2021/03/09 07:12:35;;;;;;;55.78;36.40;;;;;;;3.80;90.70;101795.56;5094109;28;20026;-41
2021/03/09 07:15:01;;;;;;;59.08;36.30;;;;;;;3.81;91.07;101797.25;5094187;28;20392;-41
2021/03/09 07:17:31;;;;;;;60.58;37.35;;;;;;;3.81;90.64;101797.25;5093846;28;20020;-41
2021/03/09 07:19:58;;;;;;;54.25;35.95;;;;;;;3.85;90.75;101809.28;5094110;28;20024;-41
2021/03/09 07:22:24;;;;;;;52.85;34.10;;;;;;;3.90;90.67;101802.63;5093966;28;20032;-40
2021/03/09 07:24:57;;;;;;;53.35;34.85;;;;;;;3.88;90.44;101810.81;5094254;28;20479;-40
2021/03/09 07:27:32;;;;;;;54.63;35.60;;;;;;;3.90;91.03;101810.63;5094477;28;20055;-41
2021/03/09 07:29:59;;;;;;;55.17;34.88;;;;;;;3.91;90.57;101815.03;5093530;28;20460;-40
2021/03/09 07:32:28;;;;;;;52.38;33.78;;;;;;;3.95;90.72;101819.00;5093616;28;20036;-39
2021/03/09 07:34:54;;;;;;;52.47;33.45;;;;;;;3.97;90.98;101825.06;5093824;28;20028;-39
2021/03/09 07:37:19;;;;;;;52.40;34.38;;;;;;;3.99;90.65;101823.88;5093774;28;20024;-40
2021/03/09 07:39:48;;;;;;;47.83;31.73;;;;;;;4.00;90.53;101820.22;5093043;28;20115;-41
2021/03/09 07:42:15;;;;;;;52.28;33.78;;;;;;;4.02;90.71;101823.56;5093756;28;20107;-41
2021/03/09 07:44:41;;;;;;;49.28;32.50;;;;;;;4.04;90.98;101826.06;5094363;28;20016;-41
2021/03/09 07:47:08;;;;;;;49.03;32.92;;;;;;;4.08;90.75;101833.59;5093937;28;20522;-41
2021/03/09 07:49:38;;;;;;;44.80;31.20;;;;;;;4.09;90.97;101827.25;5093653;28;20024;-41
2021/03/09 07:52:07;;;;;;;49.72;31.80;;;;;;;4.11;91.33;101829.78;5094173;28;20023;-41
2021/03/09 07:54:33;;;;;;;46.38;30.92;;;;;;;4.16;90.93;101826.59;5093586;28;20055;-42
2021/03/09 07:57:21;;;;;;;50.87;31.60;;;;;;;4.21;91.12;101824.28;5093560;28;20032;-41
2021/03/09 08:00:00;;;;;;;47.63;31.95;;;;;;;4.25;91.46;101820.28;5093558;28;20020;-41
2021/03/09 08:02:39;;;;;;;49.13;32.67;;;;;;;4.27;91.00;101821.75;5093245;28;20024;-41
2021/03/09 08:05:06;;;;;;;49.35;31.02;;;;;;;4.27;91.23;101821.75;5093579;28;20036;-41
2021/03/09 08:07:51;;;;;;;48.50;31.58;;;;;;;4.36;91.11;101817.25;5093474;28;20062;-41
2021/03/09 08:10:29;;;;;;;47.50;31.00;;;;;;;4.35;91.48;101821.78;5097969;28;20024;-41
2021/03/09 08:12:55;;;;;;;44.30;29.70;;;;;;;4.40;91.36;101818.59;5097651;28;20111;-41
2021/03/09 08:15:21;;;;;;;45.13;29.95;;;;;;;4.42;91.32;101823.78;5097415;28;20465;-41
2021/03/09 08:17:46;;;;;;;49.85;30.35;;;;;;;4.46;91.11;101823.28;5097585;28;20028;-41
2021/03/09 08:20:47;;;;;;;45.60;29.77;;;;;;;4.51;91.26;101839.69;5097358;28;20399;-41
2021/03/09 08:23:45;;;;;;;43.50;29.48;;;;;;;4.54;91.11;101831.34;5097239;28;20467;-41
2021/03/09 08:26:19;;;;;;;41.25;28.40;;;;;;;4.59;90.65;101833.50;5054920;28;20033;-41
2021/03/09 08:28:44;;;;;;;44.67;28.08;;;;;;;4.62;90.83;101833.16;5054997;28;20496;-41
2021/03/09 08:31:12;;;;;;;40.57;27.30;;;;;;;4.63;91.50;101824.94;5055168;28;20123;-41
2021/03/09 08:34:00;;;;;;;39.55;26.67;;;;;;;4.69;91.14;101827.97;5054631;28;20025;-41
2021/03/09 08:36:32;;;;;;;40.97;27.52;;;;;;;4.72;91.63;101836.50;5045392;28;20041;-41
2021/03/09 08:39:00;;;;;;;38.13;25.80;;;;;;;4.73;91.42;101835.50;5054495;28;20037;-41
2021/03/09 08:41:26;;;;;;;42.78;28.67;;;;;;;4.79;91.11;101836.69;5054846;28;20036;-41
2021/03/09 08:44:21;;;;;;;39.97;26.30;;;;;;;4.85;91.26;101836.00;5055156;28;20048;-41
2021/03/09 08:46:57;;;;;;;41.58;27.55;;;;;;;4.87;91.17;101834.81;4995795;28;20038;-41
2021/03/09 08:49:35;;;;;;;42.08;27.45;;;;;;;4.89;91.41;101834.66;4995805;28;20467;-41
2021/03/09 08:52:18;;;;;;;47.80;30.00;;;;;;;4.91;91.53;101836.16;4995183;28;20069;-40
2021/03/09 08:54:51;;;;;;;46.95;29.38;;;;;;;4.95;91.32;101838.50;4994934;28;20045;-40
2021/03/09 08:57:22;;;;;;;43.47;27.30;;;;;;;5.02;91.53;101831.44;4994899;28;20129;-41
2021/03/09 08:59:52;;;;;;;39.35;24.05;;;;;;;5.05;91.04;101828.44;4995120;28;20426;-40
2021/03/09 09:02:21;;;;;;;33.15;22.92;;;;;;;5.12;91.03;101832.09;5005198;28;20037;-41
2021/03/09 09:04:52;;;;;;;31.00;20.85;;;;;;;5.14;90.96;101822.88;5034830;28;20048;-41
2021/03/09 09:07:36;;;;;;;28.92;19.38;;;;;;;5.19;91.30;101824.22;5034144;28;20045;-40
2021/03/09 09:10:14;;;;;;;27.85;17.85;;;;;;;5.27;90.71;101819.66;5034776;28;20041;-40
2021/03/09 09:12:48;;;;;;;24.95;17.17;;;;;;;5.35;91.09;101819.63;5034525;28;20048;-41
2021/03/09 09:15:27;;;;;;;25.75;17.15;;;;;;;5.44;90.93;101812.38;5017672;28;20033;-41
2021/03/09 09:17:56;;;;;;;23.83;16.60;;;;;;;5.58;90.98;101814.34;5034147;28;20040;-41
2021/03/09 09:20:57;;;;;;;26.52;16.70;;;;;;;5.67;90.94;101807.94;5033458;28;20045;-41
2021/03/09 09:23:26;;;;;;;22.77;14.13;;;;;;;5.79;90.34;101810.22;5029637;28;20047;-41
2021/03/09 09:25:56;;;;;;;27.65;15.52;;;;;;;5.83;90.54;101804.31;5053953;28;20566;-40
2021/03/09 09:28:36;;;;;;;19.67;11.05;;;;;;;5.86;89.34;101812.03;5053690;28;20029;-40
2021/03/09 09:31:08;;;;;;;16.15;9.15;;;;;;;5.89;89.15;101811.66;5053748;28;20166;-40
2021/03/09 09:33:33;;;;;;;11.15;7.57;;;;;;;5.96;89.38;101808.31;5053584;28;20052;-41
2021/03/09 09:35:59;;;;;;;11.17;6.63;;;;;;;6.04;88.87;101811.78;5053889;28;20029;-41
2021/03/09 09:38:24;;;;;;;15.20;7.23;;;;;;;6.06;88.37;101808.94;5053643;28;20037;-41
2021/03/09 09:40:52;;;;;;;19.87;9.67;;;;;;;6.13;88.00;101813.41;5053497;28;20033;-40
2021/03/09 09:43:22;;;;;;;21.83;11.50;;;;;;;6.16;88.12;101823.78;5053275;28;20275;-40
2021/03/09 09:45:51;;;;;;;33.90;15.43;;;;;;;6.12;86.47;101810.91;5053909;28;20032;-40
2021/03/09 09:48:26;;;;;;;29.10;13.23;;;;;;;6.09;86.76;101816.63;5053238;28;20475;-40
2021/03/09 09:50:59;;;;;;;38.85;18.33;;;;;;;6.09;86.33;101819.28;5053953;28;20041;-40
2021/03/09 09:53:40;;;;;;;45.50;21.23;;;;;;;6.11;86.04;101810.06;5053180;28;20036;-40
2021/03/09 09:56:10;;;;;;;75.00;32.78;;;;;;;6.12;86.42;101810.91;5054003;28;20544;-40
2021/03/09 09:58:55;;;;;;;72.40;32.58;;;;;;;6.14;86.02;101811.53;5095744;28;20028;-41
2021/03/09 10:01:32;;;;;;;73.97;32.10;;;;;;;6.20;85.91;101816.22;5095319;28;20032;-41
2021/03/09 10:04:13;;;;;;;72.18;32.47;;;;;;;6.25;85.84;101805.78;5095353;28;20028;-41
2021/03/09 10:06:42;;;;;;;79.95;35.55;;;;;;;6.33;85.33;101813.75;5096121;28;20080;-40
2021/03/09 10:09:17;;;;;;;64.00;29.95;;;;;;;6.39;84.81;101818.44;5095434;28;20067;-40
2021/03/09 10:11:49;;;;;;;59.30;27.67;;;;;;;6.50;85.28;101813.66;5095109;28;20024;-40
2021/03/09 10:14:16;;;;;;;55.70;24.83;;;;;;;6.58;84.88;101810.88;5095418;28;20059;-41
2021/03/09 10:16:43;;;;;;;55.30;25.20;;;;;;;6.65;84.77;101815.34;5094162;28;20410;-41
2021/03/09 10:19:10;;;;;;;75.00;31.35;;;;;;;6.71;84.20;101821.84;5096141;28;20111;-41
2021/03/09 10:21:37;;;;;;;83.00;32.00;;;;;;;6.72;84.01;101810.91;5095270;28;20116;-41
2021/03/09 10:24:03;;;;;;;78.25;29.42;;;;;;;6.72;83.84;101808.22;5095505;28;20376;-41
2021/03/09 10:26:41;;;;;;;62.75;25.63;;;;;;;6.73;82.72;101809.06;5094890;28;20065;-41
2021/03/09 10:29:12;;;;;;;82.35;31.70;;;;;;;6.77;81.64;101810.38;5095927;28;20046;-41
2021/03/09 10:31:49;;;;;;;131.82;51.72;;;;;;;6.83;80.60;101811.47;5094981;28;20032;-41
2021/03/09 10:34:16;;;;;;;130.27;51.03;;;;;;;6.86;80.15;101814.66;5095283;28;20032;-41
2021/03/09 10:37:00;;;;;;;104.00;40.83;;;;;;;6.90;79.46;101807.06;5094962;28;20476;-41
2021/03/09 10:39:26;;;;;;;50.85;20.42;;;;;;;7.02;79.36;101804.75;5095199;28;20027;-48
2021/03/09 10:41:52;;;;;;;28.13;12.43;;;;;;;7.15;79.71;101807.63;5095393;28;20032;-41
2021/03/09 10:44:28;;;;;;;;;;;;;;;7.31;81.05;101807.44;5095561;28;20034;-41
2021/03/09 10:46:54;;;;;;;18.85;7.68;;;;;;;7.29;78.84;101790.66;5095041;28;19965;-42
2021/03/09 10:49:20;;;;;;;21.30;8.25;;;;;;;7.26;78.63;101799.09;5095073;28;20064;-41
2021/03/09 10:51:45;;;;;;;39.58;16.20;;;;;;;7.23;77.72;101799.50;5094622;28;20052;-41
2021/03/09 10:54:10;;;;;;;31.70;13.47;;;;;;;7.13;77.54;101797.06;5095284;28;20028;-43
2021/03/09 10:56:36;;;;;;;46.03;18.07;;;;;;;7.09;77.05;101795.78;5094087;28;20067;-41
2021/03/09 10:59:02;;;;;;;45.97;20.70;;;;;;;7.02;77.65;101800.19;5094861;28;20028;-41
2021/03/09 11:01:30;;;;;;;57.10;22.80;;;;;;;6.98;78.03;101798.94;5094764;28;20119;-41
2021/03/09 11:03:55;;;;;;;107.95;40.85;;;;;;;6.95;78.12;101804.66;5094535;28;20038;-41
2021/03/09 11:06:21;;;;;;;42.70;16.87;;;;;;;6.87;74.53;101797.50;5094462;28;20387;-41
2021/03/09 11:08:46;;;;;;;28.97;11.07;;;;;;;6.88;74.37;101785.75;5094145;28;20028;-41
2021/03/09 11:11:11;;;;;;;22.73;8.97;;;;;;;7.07;76.37;101799.66;5094271;28;20031;-41
2021/03/09 11:13:36;;;;;;;11.30;4.70;;;;;;;7.14;74.46;101793.34;5093377;28;20059;-41
2021/03/09 11:16:02;;;;;;;5.00;2.10;;;;;;;7.16;73.03;101795.84;5094609;28;20070;-41
2021/03/09 11:18:27;;;;;;;1.77;0.80;;;;;;;7.05;72.08;101791.78;5094279;28;20059;-41
2021/03/09 11:20:53;;;;;;;2.97;0.80;;;;;;;7.01;72.42;101800.41;5094289;28;20032;-41
2021/03/09 11:23:18;;;;;;;0.80;0.60;;;;;;;6.96;72.24;101799.09;5093828;28;20480;-41
2021/03/09 11:25:43;;;;;;;1.43;0.90;;;;;;;6.94;72.77;101800.31;5094123;28;20030;-46
2021/03/09 11:28:08;;;;;;;3.20;0.53;;;;;;;6.90;73.21;101802.53;5093780;28;20488;-41
2021/03/09 11:30:34;;;;;;;5.63;2.00;;;;;;;6.85;72.71;101801.41;5094814;28;20097;-41